Hovedside
METAR-TAF:

METAR-TAF

Lufthavner :

Sundsvall Timrå lufthavn

Sundsvall-Härnösand, Sverige

breddegrad: 62-32N, lengdegrad: 017-27E, høyde over havet: 4 m

Gjeldene værobservasjon

Denne rapporten ble laget for 15 minutter siden, klokken 20:20 UTC
Vind 2 kt fra Nordvest
Temperatur 9°C
Luftfuktighet 76%
Trykk 997 hPa
Sikt 10 km eller mer
ingen skyer under 1500 m og ingen bygeskyer

METAR: ESNN 262020Z 31002KT CAVOK 09/05 Q0997

Tid: 22:35 (20:35 UTC)

Varsel

Denne rapporten ble laget for 3 timer og 5 minutter siden, klokken 17:30 UTC
Varsel gyldig fra 26. klokken 18 UTC til 26. klokken 22 UTC
Vind 6 kt fra Nord-nordvest
Sikt 10 km eller mer
ingen skyer under 1500 m og ingen bygeskyer

TAF: ESNN 261730Z 2618/2622 34006KT CAVOK

Værobservasjoner og værvarsel for over 4000 flyplasser (METAR- og TAF-rapporter).

Tilgjengelige stasjoner er representert av de røde og gule prikkene på kartet.

Hold musepekeren over prikken for å se navnet på stasjonen.

Klikk så for å se værobservasjoner og -varsler.

For å forandre kartet kan du klikke på den grønne knappen med svart kryss for å zoome inn, på den grønne knappen med strek for å zoome ut, eller på de grønne pilene for å se tilstøtende kart.


METAR-TAF: